M/T Madonna1 — 3FRN5 — position and weather

sailwx.info

Track history (hours):
 
Tides and Currents Weather Stations Pressure Air Temp Water Temp Dewpoint Dewpoint Depression Visibility Wind Speed Wind Dir Waves Ship Positions

M/T Madonna1

Last reported at 2018-Jan-05 21:19 UTC. Time now 2018-Feb-23 04:34 UTC.
Position N 05°25' W 000°06'.
Warning: this ship's position is 48 days out of date.

Length 145 m; draft 5.8 m.

Type: Tanker. MMSI: 370698000.

Date/timePositionNaut miles runAvg speedWind from/ knotsBaromVisibWave heightAir tempDewpointWater temp
2018-Jan-05 21:19N 05°25' W 000°06'2 5.5
2018-Jan-05 20:59N 05°27' W 000°05'3 6.1
2018-Jan-05 20:30N 05°29' W 000°04'3 6.3
2018-Jan-05 20:01N 05°32' W 000°02'3 6.3
2018-Jan-05 19:31N 05°34' E 000°00'2 4.9
2018-Jan-05 19:01N 05°36' E 000°02'0 0.1
2018-Jan-05 18:30N 05°36' E 000°01'0 0.1
2018-Jan-05 18:01N 05°36' E 000°01'0 0.1
2018-Jan-05 17:30N 05°36' E 000°01'0 0.0
2018-Jan-05 17:00N 05°36' E 000°01'0 0.0
2018-Jan-05 16:31N 05°36' E 000°01'0 0.0
2018-Jan-05 16:01N 05°36' E 000°01'0 0.0
2018-Jan-05 15:31N 05°36' E 000°01'0 0.0
2018-Jan-05 15:01N 05°36' E 000°01'0 0.0
2018-Jan-05 14:31N 05°36' E 000°01'0 0.0
2018-Jan-05 14:01N 05°36' E 000°01'0 0.0
2018-Jan-05 13:31N 05°36' E 000°01'0 0.1
2018-Jan-05 13:01N 05°36' E 000°01'0 0.0
2018-Jan-05 12:31N 05°36' E 000°01'0 0.0
2018-Jan-05 12:01N 05°36' E 000°01'0 0.0
2018-Jan-05 11:31N 05°36' E 000°01'0 0.0
2018-Jan-05 11:01N 05°36' E 000°01'0 0.0
2018-Jan-05 10:31N 05°36' E 000°01'0 0.0
2018-Jan-05 10:01N 05°36' E 000°01'0 0.0
2018-Jan-05 09:31N 05°36' E 000°01'0 0.0
2018-Jan-05 09:01N 05°36' E 000°01'0 0.0
2018-Jan-05 08:30N 05°36' E 000°01'0 0.0
2018-Jan-05 08:01N 05°36' E 000°01'0 0.0
2018-Jan-05 07:30N 05°36' E 000°01'0 0.0
2018-Jan-05 07:01N 05°36' E 000°01'0 0.0
2018-Jan-05 06:31N 05°36' E 000°01'0 0.0
2018-Jan-05 06:01N 05°36' E 000°01'0 0.0
2018-Jan-05 05:31N 05°36' E 000°01'0 0.0
2018-Jan-05 05:00N 05°36' E 000°01'0 0.0
2018-Jan-05 04:31N 05°36' E 000°01'0 0.0
2018-Jan-05 04:01N 05°36' E 000°01'0 0.0
2018-Jan-05 03:31N 05°36' E 000°01'0 0.0
2018-Jan-05 03:01N 05°36' E 000°01'0 0.0
2018-Jan-05 02:31N 05°36' E 000°01'0 0.0
2018-Jan-05 02:01N 05°36' E 000°01'0 0.0
2018-Jan-05 01:30N 05°36' E 000°01'0 0.0
2018-Jan-05 01:01N 05°36' E 000°01'0 0.0
2018-Jan-05 00:31N 05°36' E 000°01'0 0.0
2018-Jan-05 00:01N 05°36' E 000°01'0 0.0
2018-Jan-04 23:31N 05°36' E 000°01'0 0.0
2018-Jan-04 23:01N 05°36' E 000°01'0 0.0
2018-Jan-04 22:31N 05°36' E 000°01'0 0.0
2018-Jan-04 22:01N 05°36' E 000°01'0 0.0
2018-Jan-04 21:31N 05°36' E 000°01'0 0.0
2018-Jan-04 21:01N 05°36' E 000°01'0 0.0
2018-Jan-04 20:31N 05°36' E 000°01'0 0.0
2018-Jan-04 20:01N 05°36' E 000°01'0 0.0
2018-Jan-04 19:31N 05°36' E 000°01'0 0.0
2018-Jan-04 19:01N 05°36' E 000°01'0 0.0
2018-Jan-04 18:31N 05°36' E 000°01'0 0.0
2018-Jan-04 18:01N 05°36' E 000°01'0 0.0
2018-Jan-04 17:30N 05°36' E 000°01'0 0.0
2018-Jan-04 17:01N 05°36' E 000°01'0 0.0
2018-Jan-04 16:31N 05°36' E 000°01'0 0.0
2018-Jan-04 16:01N 05°36' E 000°01'0 0.0
2018-Jan-04 15:31N 05°36' E 000°01'0 0.0
2018-Jan-04 15:01N 05°36' E 000°01'0 0.0
2018-Jan-04 14:31N 05°36' E 000°01'0 0.2
2018-Jan-04 14:00N 05°36' E 000°02'1 2.7
2018-Jan-04 13:30N 05°35' E 000°02'2 5.0
2018-Jan-04 13:00N 05°33' E 000°04'2 4.1
2018-Jan-04 12:31N 05°35' E 000°03'1 2.9
2018-Jan-04 12:01N 05°36' E 000°02'0 0.0
2018-Jan-04 11:28N 05°36' E 000°02'0 0.0
2018-Jan-04 10:57N 05°36' E 000°02'0 0.0
2018-Jan-04 10:30N 05°36' E 000°02'0 0.0
2018-Jan-04 10:00N 05°36' E 000°02'0 0.0
2018-Jan-04 09:30N 05°36' E 000°02'0 0.0
2018-Jan-04 08:57N 05°36' E 000°02'0 0.0
2018-Jan-04 08:30N 05°36' E 000°02'0 0.0
2018-Jan-04 08:00N 05°36' E 000°02'0 0.0
2018-Jan-04 07:30N 05°36' E 000°02'0 0.0
2018-Jan-04 07:00N 05°36' E 000°02'0 0.0
2018-Jan-04 06:27N 05°36' E 000°02'0 0.0
2018-Jan-04 06:00N 05°36' E 000°02'0 0.0
2018-Jan-04 05:30N 05°36' E 000°02'0 0.0
2018-Jan-04 05:00N 05°36' E 000°02'0 0.0
2018-Jan-04 04:30N 05°36' E 000°02'0 0.0
2018-Jan-04 04:00N 05°36' E 000°02'0 0.0
2018-Jan-04 03:30N 05°36' E 000°02'0 0.1
2018-Jan-04 03:00N 05°36' E 000°02'0 0.0
2018-Jan-04 02:30N 05°36' E 000°02'0 0.0
2018-Jan-04 02:00N 05°36' E 000°02'0 0.0
2018-Jan-04 01:30N 05°36' E 000°02'0 0.0
2018-Jan-04 00:57N 05°36' E 000°02'0 0.0
2018-Jan-04 00:30N 05°36' E 000°02'0 0.0
2018-Jan-04 00:00N 05°36' E 000°02'0 0.0
2018-Jan-03 23:30N 05°36' E 000°02'0 0.0
2018-Jan-03 23:00N 05°36' E 000°02'0 0.0
2018-Jan-03 22:30N 05°36' E 000°02'0 0.0
2018-Jan-03 22:00N 05°36' E 000°02'0 0.0
2018-Jan-03 21:30N 05°36' E 000°02'0 0.0
2018-Jan-03 21:00N 05°36' E 000°02'0 0.0
2018-Jan-03 20:30N 05°36' E 000°02'0 0.0
2018-Jan-03 20:00N 05°36' E 000°02'0 0.0
2018-Jan-03 19:30N 05°36' E 000°02'0 0.0
2018-Jan-03 19:00N 05°36' E 000°02'0 0.0
2018-Jan-03 18:30N 05°36' E 000°02'0 0.0
2018-Jan-03 18:00N 05°36' E 000°02'0 0.0
2018-Jan-03 17:30N 05°36' E 000°02'0 0.0
2018-Jan-03 17:00N 05°36' E 000°02'0 0.0
2018-Jan-03 16:30N 05°36' E 000°02'0 0.0
2018-Jan-03 16:00N 05°36' E 000°02'0 0.0
2018-Jan-03 15:30N 05°36' E 000°02'0 0.0
2018-Jan-03 15:00N 05°36' E 000°02'0 0.0
2018-Jan-03 14:30N 05°36' E 000°02'0 0.8
2018-Jan-03 14:00N 05°35' E 000°02'0 0.6
2018-Jan-03 13:30N 05°36' E 000°02'0 0.0
2018-Jan-03 13:00N 05°36' E 000°02'0 0.0
2018-Jan-03 12:30N 05°36' E 000°02'0 0.0
2018-Jan-03 11:54N 05°36' E 000°02'0 0.0
2018-Jan-03 11:30N 05°36' E 000°02'0 0.0
2018-Jan-03 11:00N 05°36' E 000°02'0 0.0
2018-Jan-03 10:30N 05°36' E 000°02'0 0.0
2018-Jan-03 10:00N 05°36' E 000°02'0 0.0
2018-Jan-03 09:30N 05°36' E 000°02'0 0.0
2018-Jan-03 09:00N 05°36' E 000°02'0 0.0
2018-Jan-03 08:30N 05°36' E 000°02'0 0.0
2018-Jan-03 08:00N 05°36' E 000°02'0 0.0
2018-Jan-03 07:30N 05°36' E 000°02'0 0.0
2018-Jan-03 07:00N 05°36' E 000°02'0 0.0
2018-Jan-03 06:30N 05°36' E 000°02'0 0.1
2018-Jan-03 06:00N 05°36' E 000°02'0 0.0
2018-Jan-03 05:30N 05°36' E 000°02'0 0.0
2018-Jan-03 05:00N 05°36' E 000°02'0 0.0
2018-Jan-03 04:30N 05°36' E 000°02'0 0.0
2018-Jan-03 04:00N 05°36' E 000°02'0 0.1
2018-Jan-03 03:30N 05°36' E 000°02'0 0.0
2018-Jan-03 03:00N 05°36' E 000°02'0 0.1
2018-Jan-03 02:30N 05°36' E 000°02'0 0.0
2018-Jan-03 02:00N 05°36' E 000°02'0 0.0
2018-Jan-03 01:30N 05°36' E 000°02'0 0.0
2018-Jan-03 01:00N 05°36' E 000°02'0 0.0
2018-Jan-03 00:30N 05°36' E 000°02'0 0.0
2018-Jan-03 00:00N 05°36' E 000°02'0 0.0
2018-Jan-02 23:30N 05°36' E 000°02'0 0.0
2018-Jan-02 23:00N 05°36' E 000°02'0 0.0
2018-Jan-02 22:30N 05°36' E 000°02'0 0.0
2018-Jan-02 22:00N 05°36' E 000°02'0 0.0
2018-Jan-02 21:30N 05°36' E 000°02'0 0.0
2018-Jan-02 21:00N 05°36' E 000°02'0 0.0
2018-Jan-02 20:30N 05°36' E 000°02'0 0.0
2018-Jan-02 20:00N 05°36' E 000°02'0 0.0
2018-Jan-02 19:30N 05°36' E 000°02'0 0.0
2018-Jan-02 18:54N 05°36' E 000°02'0 0.0
2018-Jan-02 18:30N 05°36' E 000°02'0 0.0
2018-Jan-02 18:00N 05°36' E 000°02'0 0.0
2018-Jan-02 17:30N 05°36' E 000°02'0 0.0
2018-Jan-02 17:00N 05°36' E 000°02'0 0.0
2018-Jan-02 16:30N 05°36' E 000°02'0 0.0
2018-Jan-02 16:00N 05°36' E 000°02'0 0.0
2018-Jan-02 15:30N 05°36' E 000°02'0 0.0
2018-Jan-02 15:00N 05°36' E 000°02'0 0.0
2018-Jan-02 14:30N 05°36' E 000°02'0 0.0
2018-Jan-02 14:00N 05°36' E 000°02'0 0.0
2018-Jan-02 13:30N 05°36' E 000°02'0 0.0
2018-Jan-02 13:00N 05°36' E 000°02'0 0.0
2018-Jan-02 12:30N 05°36' E 000°02'0 0.0
2018-Jan-02 12:00N 05°36' E 000°02'0 0.0
2018-Jan-02 11:30N 05°36' E 000°02'0 0.0
2018-Jan-02 11:00N 05°36' E 000°02'0 0.1
2018-Jan-02 10:30N 05°36' E 000°02'0 0.1
2018-Jan-02 10:00N 05°36' E 000°02'0 0.0
2018-Jan-02 09:30N 05°36' E 000°02'0 0.0
2018-Jan-02 08:30N 05°36' E 000°02'0 0.0
2018-Jan-02 08:00N 05°36' E 000°02'0 0.0
2018-Jan-02 07:30N 05°36' E 000°02'0 0.0
2018-Jan-02 06:54N 05°36' E 000°02'0 0.1
2018-Jan-02 06:30N 05°36' E 000°02'0 0.1
2018-Jan-02 06:00N 05°36' E 000°02'0 0.0
2018-Jan-02 05:30N 05°36' E 000°02'0 0.0
2018-Jan-02 04:30N 05°36' E 000°02'0 0.0
2018-Jan-02 04:00N 05°36' E 000°02'0 0.0
2018-Jan-02 03:30N 05°36' E 000°02'0 0.0
2018-Jan-02 03:00N 05°36' E 000°02'0 0.0
2018-Jan-02 02:30N 05°36' E 000°02'0 0.0
2018-Jan-02 02:00N 05°36' E 000°02'0 0.1
2018-Jan-02 01:30N 05°36' E 000°02'0 0.0
2018-Jan-02 01:00N 05°36' E 000°02'0 0.1
2018-Jan-02 00:30N 05°36' E 000°02'0 0.0
2018-Jan-02 00:00N 05°36' E 000°02'0 0.0
2018-Jan-01 23:30N 05°36' E 000°02'0 0.0
2018-Jan-01 23:00N 05°36' E 000°02'0 0.0
2018-Jan-01 22:30N 05°36' E 000°02'0 0.0
2018-Jan-01 22:00N 05°36' E 000°02'0 0.1
2018-Jan-01 21:30N 05°36' E 000°02'0 0.0
2018-Jan-01 21:00N 05°36' E 000°02'0 0.0
2018-Jan-01 20:30N 05°36' E 000°02'0 0.0
2018-Jan-01 20:00N 05°36' E 000°02'0 0.1
2018-Jan-01 19:30N 05°36' E 000°02'0 0.0
2018-Jan-01 19:00N 05°36' E 000°02'0 0.0
2018-Jan-01 18:30N 05°36' E 000°02'0 0.0
2018-Jan-01 18:00N 05°36' E 000°02'0 0.0
2018-Jan-01 17:30N 05°36' E 000°02'0 0.0
2018-Jan-01 14:57N 05°36' E 000°02'0 0.0
2018-Jan-01 14:30N 05°36' E 000°02'0 0.0
2018-Jan-01 14:00N 05°36' E 000°02'0 0.0
2018-Jan-01 13:27N 05°36' E 000°02'0 0.0
2018-Jan-01 13:00N 05°36' E 000°02'0 0.0
2018-Jan-01 12:00N 05°36' E 000°02'0 0.1
2018-Jan-01 11:30N 05°36' E 000°02'0 0.1
2018-Jan-01 11:00N 05°36' E 000°02'0 0.0
2018-Jan-01 10:30N 05°36' E 000°02'0 0.0
2018-Jan-01 10:00N 05°36' E 000°02'0 0.1
2018-Jan-01 09:30N 05°36' E 000°02'0 0.1
2018-Jan-01 08:30N 05°36' E 000°02'0 0.0
2018-Jan-01 08:00N 05°36' E 000°02'0 0.0
2018-Jan-01 07:24N 05°36' E 000°02'0 0.1
2018-Jan-01 07:00N 05°36' E 000°02'0 0.0
2018-Jan-01 06:00N 05°36' E 000°02'0 0.0
2018-Jan-01 05:30N 05°36' E 000°02'0 0.0
2018-Jan-01 05:00N 05°36' E 000°02'0 0.0
2018-Jan-01 04:00N 05°36' E 000°02'0 0.0
2018-Jan-01 03:30N 05°36' E 000°02'0 0.0
2018-Jan-01 03:00N 05°36' E 000°02'0 0.0
2018-Jan-01 02:30N 05°36' E 000°02'0 0.0
2018-Jan-01 02:00N 05°36' E 000°02'0 0.0
2018-Jan-01 01:30N 05°36' E 000°02'0 0.0
2018-Jan-01 00:30N 05°36' E 000°02'0 0.0
2017-Dec-31 21:00N 05°36' E 000°02'0 0.0
2017-Dec-31 20:30N 05°36' E 000°02'0 0.0
2017-Dec-31 19:58N 05°36' E 000°02'0 0.0
2017-Dec-31 19:28N 05°36' E 000°02'0 0.0
2017-Dec-31 18:58N 05°36' E 000°02'0 0.0
2017-Dec-31 18:28N 05°36' E 000°02'0 0.0
2017-Dec-31 17:58N 05°36' E 000°02'0 0.0
2017-Dec-31 17:28N 05°36' E 000°02'0 0.0
2017-Dec-31 16:58N 05°36' E 000°02'0 0.0
2017-Dec-31 16:25N 05°36' E 000°02'0 0.0
2017-Dec-31 15:58N 05°36' E 000°02'0 0.0
2017-Dec-31 15:28N 05°36' E 000°02'0 0.0
2017-Dec-31 14:58N 05°36' E 000°02'0 0.0
2017-Dec-31 14:28N 05°36' E 000°02'0 0.0
2017-Dec-31 13:58N 05°36' E 000°02'0 0.0
2017-Dec-31 13:28N 05°36' E 000°02'0 0.1
2017-Dec-31 12:58N 05°36' E 000°02'0 0.1
2017-Dec-31 12:28N 05°36' E 000°02'0 0.0
2017-Dec-31 11:58N 05°36' E 000°02'0 0.0
2017-Dec-31 11:28N 05°36' E 000°02'0 0.0
2017-Dec-31 10:58N 05°36' E 000°02'0 0.0
2017-Dec-31 10:28N 05°36' E 000°02'  
Track history (hours):
 
Tides and Currents Weather Stations Pressure Air Temp Water Temp Dewpoint Dewpoint Depression Visibility Wind Speed Wind Dir Waves Ship Positions

M/T Madonna1

Last reported at 2018-Jan-05 21:19 UTC. Time now 2018-Feb-23 04:34 UTC.
Position N 05°25' W 000°06'.
Warning: this ship's position is 48 days out of date.

Length 145 m; draft 5.8 m.

Type: Tanker. MMSI: 370698000.

Date/timePositionNaut miles runAvg speedWind from/ knotsBaromVisibWave heightAir tempDewpointWater temp
2018-Jan-05 21:19N 05°25' W 000°06'2 5.5
2018-Jan-05 20:59N 05°27' W 000°05'3 6.1
2018-Jan-05 20:30N 05°29' W 000°04'3 6.3
2018-Jan-05 20:01N 05°32' W 000°02'3 6.3
2018-Jan-05 19:31N 05°34' E 000°00'2 4.9
2018-Jan-05 19:01N 05°36' E 000°02'0 0.1
2018-Jan-05 18:30N 05°36' E 000°01'0 0.1
2018-Jan-05 18:01N 05°36' E 000°01'0 0.1
2018-Jan-05 17:30N 05°36' E 000°01'0 0.0
2018-Jan-05 17:00N 05°36' E 000°01'0 0.0
2018-Jan-05 16:31N 05°36' E 000°01'0 0.0
2018-Jan-05 16:01N 05°36' E 000°01'0 0.0
2018-Jan-05 15:31N 05°36' E 000°01'0 0.0
2018-Jan-05 15:01N 05°36' E 000°01'0 0.0
2018-Jan-05 14:31N 05°36' E 000°01'0 0.0
2018-Jan-05 14:01N 05°36' E 000°01'0 0.0
2018-Jan-05 13:31N 05°36' E 000°01'0 0.1
2018-Jan-05 13:01N 05°36' E 000°01'0 0.0
2018-Jan-05 12:31N 05°36' E 000°01'0 0.0
2018-Jan-05 12:01N 05°36' E 000°01'0 0.0
2018-Jan-05 11:31N 05°36' E 000°01'0 0.0
2018-Jan-05 11:01N 05°36' E 000°01'0 0.0
2018-Jan-05 10:31N 05°36' E 000°01'0 0.0
2018-Jan-05 10:01N 05°36' E 000°01'0 0.0
2018-Jan-05 09:31N 05°36' E 000°01'0 0.0
2018-Jan-05 09:01N 05°36' E 000°01'0 0.0
2018-Jan-05 08:30N 05°36' E 000°01'0 0.0
2018-Jan-05 08:01N 05°36' E 000°01'0 0.0
2018-Jan-05 07:30N 05°36' E 000°01'0 0.0
2018-Jan-05 07:01N 05°36' E 000°01'0 0.0
2018-Jan-05 06:31N 05°36' E 000°01'0 0.0
2018-Jan-05 06:01N 05°36' E 000°01'0 0.0
2018-Jan-05 05:31N 05°36' E 000°01'0 0.0
2018-Jan-05 05:00N 05°36' E 000°01'0 0.0
2018-Jan-05 04:31N 05°36' E 000°01'0 0.0
2018-Jan-05 04:01N 05°36' E 000°01'0 0.0
2018-Jan-05 03:31N 05°36' E 000°01'0 0.0
2018-Jan-05 03:01N 05°36' E 000°01'0 0.0
2018-Jan-05 02:31N 05°36' E 000°01'0 0.0
2018-Jan-05 02:01N 05°36' E 000°01'0 0.0
2018-Jan-05 01:30N 05°36' E 000°01'0 0.0
2018-Jan-05 01:01N 05°36' E 000°01'0 0.0
2018-Jan-05 00:31N 05°36' E 000°01'0 0.0
2018-Jan-05 00:01N 05°36' E 000°01'0 0.0
2018-Jan-04 23:31N 05°36' E 000°01'0 0.0
2018-Jan-04 23:01N 05°36' E 000°01'0 0.0
2018-Jan-04 22:31N 05°36' E 000°01'0 0.0
2018-Jan-04 22:01N 05°36' E 000°01'0 0.0
2018-Jan-04 21:31N 05°36' E 000°01'0 0.0
2018-Jan-04 21:01N 05°36' E 000°01'0 0.0
2018-Jan-04 20:31N 05°36' E 000°01'0 0.0
2018-Jan-04 20:01N 05°36' E 000°01'0 0.0
2018-Jan-04 19:31N 05°36' E 000°01'0 0.0
2018-Jan-04 19:01N 05°36' E 000°01'0 0.0
2018-Jan-04 18:31N 05°36' E 000°01'0 0.0
2018-Jan-04 18:01N 05°36' E 000°01'0 0.0
2018-Jan-04 17:30N 05°36' E 000°01'0 0.0
2018-Jan-04 17:01N 05°36' E 000°01'0 0.0
2018-Jan-04 16:31N 05°36' E 000°01'0 0.0
2018-Jan-04 16:01N 05°36' E 000°01'0 0.0
2018-Jan-04 15:31N 05°36' E 000°01'0 0.0
2018-Jan-04 15:01N 05°36' E 000°01'0 0.0
2018-Jan-04 14:31N 05°36' E 000°01'0 0.2
2018-Jan-04 14:00N 05°36' E 000°02'1 2.7
2018-Jan-04 13:30N 05°35' E 000°02'2 5.0
2018-Jan-04 13:00N 05°33' E 000°04'2 4.1
2018-Jan-04 12:31N 05°35' E 000°03'1 2.9
2018-Jan-04 12:01N 05°36' E 000°02'0 0.0
2018-Jan-04 11:28N 05°36' E 000°02'0 0.0
2018-Jan-04 10:57N 05°36' E 000°02'0 0.0
2018-Jan-04 10:30N 05°36' E 000°02'0 0.0
2018-Jan-04 10:00N 05°36' E 000°02'0 0.0
2018-Jan-04 09:30N 05°36' E 000°02'0 0.0
2018-Jan-04 08:57N 05°36' E 000°02'0 0.0
2018-Jan-04 08:30N 05°36' E 000°02'0 0.0
2018-Jan-04 08:00N 05°36' E 000°02'0 0.0
2018-Jan-04 07:30N 05°36' E 000°02'0 0.0
2018-Jan-04 07:00N 05°36' E 000°02'0 0.0
2018-Jan-04 06:27N 05°36' E 000°02'0 0.0
2018-Jan-04 06:00N 05°36' E 000°02'0 0.0
2018-Jan-04 05:30N 05°36' E 000°02'0 0.0
2018-Jan-04 05:00N 05°36' E 000°02'0 0.0
2018-Jan-04 04:30N 05°36' E 000°02'0 0.0
2018-Jan-04 04:00N 05°36' E 000°02'0 0.0
2018-Jan-04 03:30N 05°36' E 000°02'0 0.1
2018-Jan-04 03:00N 05°36' E 000°02'0 0.0
2018-Jan-04 02:30N 05°36' E 000°02'0 0.0
2018-Jan-04 02:00N 05°36' E 000°02'0 0.0
2018-Jan-04 01:30N 05°36' E 000°02'0 0.0
2018-Jan-04 00:57N 05°36' E 000°02'0 0.0
2018-Jan-04 00:30N 05°36' E 000°02'0 0.0
2018-Jan-04 00:00N 05°36' E 000°02'0 0.0
2018-Jan-03 23:30N 05°36' E 000°02'0 0.0
2018-Jan-03 23:00N 05°36' E 000°02'0 0.0
2018-Jan-03 22:30N 05°36' E 000°02'0 0.0
2018-Jan-03 22:00N 05°36' E 000°02'0 0.0
2018-Jan-03 21:30N 05°36' E 000°02'0 0.0
2018-Jan-03 21:00N 05°36' E 000°02'0 0.0
2018-Jan-03 20:30N 05°36' E 000°02'0 0.0
2018-Jan-03 20:00N 05°36' E 000°02'0 0.0
2018-Jan-03 19:30N 05°36' E 000°02'0 0.0
2018-Jan-03 19:00N 05°36' E 000°02'0 0.0
2018-Jan-03 18:30N 05°36' E 000°02'0 0.0
2018-Jan-03 18:00N 05°36' E 000°02'0 0.0
2018-Jan-03 17:30N 05°36' E 000°02'0 0.0
2018-Jan-03 17:00N 05°36' E 000°02'0 0.0
2018-Jan-03 16:30N 05°36' E 000°02'0 0.0
2018-Jan-03 16:00N 05°36' E 000°02'0 0.0
2018-Jan-03 15:30N 05°36' E 000°02'0 0.0
2018-Jan-03 15:00N 05°36' E 000°02'0 0.0
2018-Jan-03 14:30N 05°36' E 000°02'0 0.8
2018-Jan-03 14:00N 05°35' E 000°02'0 0.6
2018-Jan-03 13:30N 05°36' E 000°02'0 0.0
2018-Jan-03 13:00N 05°36' E 000°02'0 0.0
2018-Jan-03 12:30N 05°36' E 000°02'0 0.0
2018-Jan-03 11:54N 05°36' E 000°02'0 0.0
2018-Jan-03 11:30N 05°36' E 000°02'0 0.0
2018-Jan-03 11:00N 05°36' E 000°02'0 0.0
2018-Jan-03 10:30N 05°36' E 000°02'0 0.0
2018-Jan-03 10:00N 05°36' E 000°02'0 0.0
2018-Jan-03 09:30N 05°36' E 000°02'0 0.0
2018-Jan-03 09:00N 05°36' E 000°02'0 0.0
2018-Jan-03 08:30N 05°36' E 000°02'0 0.0
2018-Jan-03 08:00N 05°36' E 000°02'0 0.0
2018-Jan-03 07:30N 05°36' E 000°02'0 0.0
2018-Jan-03 07:00N 05°36' E 000°02'0 0.0
2018-Jan-03 06:30N 05°36' E 000°02'0 0.1
2018-Jan-03 06:00N 05°36' E 000°02'0 0.0
2018-Jan-03 05:30N 05°36' E 000°02'0 0.0
2018-Jan-03 05:00N 05°36' E 000°02'0 0.0
2018-Jan-03 04:30N 05°36' E 000°02'0 0.0
2018-Jan-03 04:00N 05°36' E 000°02'0 0.1
2018-Jan-03 03:30N 05°36' E 000°02'0 0.0
2018-Jan-03 03:00N 05°36' E 000°02'0 0.1
2018-Jan-03 02:30N 05°36' E 000°02'0 0.0
2018-Jan-03 02:00N 05°36' E 000°02'0 0.0
2018-Jan-03 01:30N 05°36' E 000°02'0 0.0
2018-Jan-03 01:00N 05°36' E 000°02'0 0.0
2018-Jan-03 00:30N 05°36' E 000°02'0 0.0
2018-Jan-03 00:00N 05°36' E 000°02'0 0.0
2018-Jan-02 23:30N 05°36' E 000°02'0 0.0
2018-Jan-02 23:00N 05°36' E 000°02'0 0.0
2018-Jan-02 22:30N 05°36' E 000°02'0 0.0
2018-Jan-02 22:00N 05°36' E 000°02'0 0.0
2018-Jan-02 21:30N 05°36' E 000°02'0 0.0
2018-Jan-02 21:00N 05°36' E 000°02'0 0.0
2018-Jan-02 20:30N 05°36' E 000°02'0 0.0
2018-Jan-02 20:00N 05°36' E 000°02'0 0.0
2018-Jan-02 19:30N 05°36' E 000°02'0 0.0
2018-Jan-02 18:54N 05°36' E 000°02'0 0.0
2018-Jan-02 18:30N 05°36' E 000°02'0 0.0
2018-Jan-02 18:00N 05°36' E 000°02'0 0.0
2018-Jan-02 17:30N 05°36' E 000°02'0 0.0
2018-Jan-02 17:00N 05°36' E 000°02'0 0.0
2018-Jan-02 16:30N 05°36' E 000°02'0 0.0
2018-Jan-02 16:00N 05°36' E 000°02'0 0.0
2018-Jan-02 15:30N 05°36' E 000°02'0 0.0
2018-Jan-02 15:00N 05°36' E 000°02'0 0.0
2018-Jan-02 14:30N 05°36' E 000°02'0 0.0
2018-Jan-02 14:00N 05°36' E 000°02'0 0.0
2018-Jan-02 13:30N 05°36' E 000°02'0 0.0
2018-Jan-02 13:00N 05°36' E 000°02'0 0.0
2018-Jan-02 12:30N 05°36' E 000°02'0 0.0
2018-Jan-02 12:00N 05°36' E 000°02'0 0.0
2018-Jan-02 11:30N 05°36' E 000°02'0 0.0
2018-Jan-02 11:00N 05°36' E 000°02'0 0.1
2018-Jan-02 10:30N 05°36' E 000°02'0 0.1
2018-Jan-02 10:00N 05°36' E 000°02'0 0.0
2018-Jan-02 09:30N 05°36' E 000°02'0 0.0
2018-Jan-02 08:30N 05°36' E 000°02'0 0.0
2018-Jan-02 08:00N 05°36' E 000°02'0 0.0
2018-Jan-02 07:30N 05°36' E 000°02'0 0.0
2018-Jan-02 06:54N 05°36' E 000°02'0 0.1
2018-Jan-02 06:30N 05°36' E 000°02'0 0.1
2018-Jan-02 06:00N 05°36' E 000°02'0 0.0
2018-Jan-02 05:30N 05°36' E 000°02'0 0.0
2018-Jan-02 04:30N 05°36' E 000°02'0 0.0
2018-Jan-02 04:00N 05°36' E 000°02'0 0.0
2018-Jan-02 03:30N 05°36' E 000°02'0 0.0
2018-Jan-02 03:00N 05°36' E 000°02'0 0.0
2018-Jan-02 02:30N 05°36' E 000°02'0 0.0
2018-Jan-02 02:00N 05°36' E 000°02'0 0.1
2018-Jan-02 01:30N 05°36' E 000°02'0 0.0
2018-Jan-02 01:00N 05°36' E 000°02'0 0.1
2018-Jan-02 00:30N 05°36' E 000°02'0 0.0
2018-Jan-02 00:00N 05°36' E 000°02'0 0.0
2018-Jan-01 23:30N 05°36' E 000°02'0 0.0
2018-Jan-01 23:00N 05°36' E 000°02'0 0.0
2018-Jan-01 22:30N 05°36' E 000°02'0 0.0
2018-Jan-01 22:00N 05°36' E 000°02'0 0.1
2018-Jan-01 21:30N 05°36' E 000°02'0 0.0
2018-Jan-01 21:00N 05°36' E 000°02'0 0.0
2018-Jan-01 20:30N 05°36' E 000°02'0 0.0
2018-Jan-01 20:00N 05°36' E 000°02'0 0.1
2018-Jan-01 19:30N 05°36' E 000°02'0 0.0
2018-Jan-01 19:00N 05°36' E 000°02'0 0.0
2018-Jan-01 18:30N 05°36' E 000°02'0 0.0
2018-Jan-01 18:00N 05°36' E 000°02'0 0.0
2018-Jan-01 17:30N 05°36' E 000°02'0 0.0
2018-Jan-01 14:57N 05°36' E 000°02'0 0.0
2018-Jan-01 14:30N 05°36' E 000°02'0 0.0
2018-Jan-01 14:00N 05°36' E 000°02'0 0.0
2018-Jan-01 13:27N 05°36' E 000°02'0 0.0
2018-Jan-01 13:00N 05°36' E 000°02'0 0.0
2018-Jan-01 12:00N 05°36' E 000°02'0 0.1
2018-Jan-01 11:30N 05°36' E 000°02'0 0.1
2018-Jan-01 11:00N 05°36' E 000°02'0 0.0
2018-Jan-01 10:30N 05°36' E 000°02'0 0.0
2018-Jan-01 10:00N 05°36' E 000°02'0 0.1
2018-Jan-01 09:30N 05°36' E 000°02'0 0.1
2018-Jan-01 08:30N 05°36' E 000°02'0 0.0
2018-Jan-01 08:00N 05°36' E 000°02'0 0.0
2018-Jan-01 07:24N 05°36' E 000°02'0 0.1
2018-Jan-01 07:00N 05°36' E 000°02'0 0.0
2018-Jan-01 06:00N 05°36' E 000°02'0 0.0
2018-Jan-01 05:30N 05°36' E 000°02'0 0.0
2018-Jan-01 05:00N 05°36' E 000°02'0 0.0
2018-Jan-01 04:00N 05°36' E 000°02'0 0.0
2018-Jan-01 03:30N 05°36' E 000°02'0 0.0
2018-Jan-01 03:00N 05°36' E 000°02'0 0.0
2018-Jan-01 02:30N 05°36' E 000°02'0 0.0
2018-Jan-01 02:00N 05°36' E 000°02'0 0.0
2018-Jan-01 01:30N 05°36' E 000°02'0 0.0
2018-Jan-01 00:30N 05°36' E 000°02'0 0.0
2017-Dec-31 21:00N 05°36' E 000°02'0 0.0
2017-Dec-31 20:30N 05°36' E 000°02'0 0.0
2017-Dec-31 19:58N 05°36' E 000°02'0 0.0
2017-Dec-31 19:28N 05°36' E 000°02'0 0.0
2017-Dec-31 18:58N 05°36' E 000°02'0 0.0
2017-Dec-31 18:28N 05°36' E 000°02'0 0.0
2017-Dec-31 17:58N 05°36' E 000°02'0 0.0
2017-Dec-31 17:28N 05°36' E 000°02'0 0.0
2017-Dec-31 16:58N 05°36' E 000°02'0 0.0
2017-Dec-31 16:25N 05°36' E 000°02'0 0.0
2017-Dec-31 15:58N 05°36' E 000°02'0 0.0
2017-Dec-31 15:28N 05°36' E 000°02'0 0.0
2017-Dec-31 14:58N 05°36' E 000°02'0 0.0
2017-Dec-31 14:28N 05°36' E 000°02'0 0.0
2017-Dec-31 13:58N 05°36' E 000°02'0 0.0
2017-Dec-31 13:28N 05°36' E 000°02'0 0.1
2017-Dec-31 12:58N 05°36' E 000°02'0 0.1
2017-Dec-31 12:28N 05°36' E 000°02'0 0.0
2017-Dec-31 11:58N 05°36' E 000°02'0 0.0
2017-Dec-31 11:28N 05°36' E 000°02'0 0.0
2017-Dec-31 10:58N 05°36' E 000°02'0 0.0
2017-Dec-31 10:28N 05°36' E 000°02'  

Dump ship's entire track history